createdAt,value
2022-08-18T00:01:05.898Z,9.40
2022-08-18T00:03:56.367Z,8.40
2022-08-18T00:06:20.865Z,9.10
2022-08-18T00:08:47.626Z,12.97
2022-08-18T00:11:15.513Z,9.53
2022-08-18T00:13:42.236Z,13.60
2022-08-18T00:16:08.954Z,12.70
2022-08-18T00:18:35.717Z,12.77
2022-08-18T00:21:02.513Z,9.90
2022-08-18T00:23:30.551Z,11.57
2022-08-18T00:25:57.272Z,7.70
2022-08-18T00:28:24.118Z,8.73
2022-08-18T00:30:54.207Z,7.43
2022-08-18T00:33:21.737Z,7.37
2022-08-18T00:35:49.035Z,11.00
2022-08-18T00:38:24.543Z,6.23
2022-08-18T00:40:55.978Z,7.73
2022-08-18T00:43:29.484Z,7.37
2022-08-18T00:45:56.161Z,8.03
2022-08-18T00:48:24.405Z,8.40
2022-08-18T00:50:55.433Z,7.37
2022-08-18T00:53:27.067Z,6.83
2022-08-18T00:55:56.574Z,9.57
2022-08-18T00:58:29.703Z,6.83
2022-08-18T01:00:57.037Z,7.67
2022-08-18T01:03:24.674Z,9.30
2022-08-18T01:05:56.321Z,7.60
2022-08-18T01:08:29.294Z,12.83
2022-08-18T01:10:59.035Z,8.53
2022-08-18T01:13:28.121Z,9.13
2022-08-18T01:15:54.939Z,10.67
2022-08-18T01:18:21.890Z,12.30
2022-08-18T01:20:54.575Z,29.30
2022-08-18T01:23:23.083Z,24.70
2022-08-18T01:25:51.799Z,21.33
2022-08-18T01:28:18.645Z,15.57
2022-08-18T01:30:47.658Z,12.80
2022-08-18T01:33:15.473Z,10.23
2022-08-18T01:35:45.486Z,10.80
2022-08-18T01:38:12.498Z,10.53
2022-08-18T01:41:17.512Z,11.27
2022-08-18T01:43:27.636Z,11.27
2022-08-18T01:45:54.376Z,9.97
2022-08-18T01:48:21.095Z,8.97
2022-08-18T01:50:47.835Z,8.87
2022-08-18T01:53:15.258Z,7.70
2022-08-18T01:55:44.547Z,7.50
2022-08-18T01:58:11.421Z,8.30
2022-08-18T02:00:38.187Z,9.50
2022-08-18T02:03:07.556Z,9.50
2022-08-18T02:05:37.919Z,14.63
2022-08-18T02:08:05.200Z,10.83
2022-08-18T02:10:32.170Z,9.30
2022-08-18T02:13:00.343Z,9.70
2022-08-18T02:15:27.166Z,9.50
2022-08-18T02:17:53.860Z,12.53
2022-08-18T02:20:20.757Z,7.90
2022-08-18T02:22:48.591Z,7.70
2022-08-18T02:25:16.585Z,7.97
2022-08-18T02:27:43.746Z,9.10
2022-08-18T02:30:16.608Z,9.83
2022-08-18T02:32:43.475Z,8.93
2022-08-18T02:35:11.909Z,13.40
2022-08-18T02:37:47.724Z,10.23
2022-08-18T02:40:15.665Z,10.60
2022-08-18T02:42:42.829Z,10.67
2022-08-18T02:45:11.564Z,13.10
2022-08-18T02:47:38.342Z,13.57
2022-08-18T02:50:06.359Z,10.83
2022-08-18T02:52:34.767Z,8.40
2022-08-18T02:55:02.811Z,9.30
2022-08-18T02:57:30.557Z,17.43
2022-08-18T02:59:57.420Z,10.30
2022-08-18T03:02:27.891Z,10.80
2022-08-18T03:04:54.577Z,11.73
2022-08-18T03:07:21.257Z,14.10
2022-08-18T03:09:48.251Z,8.43
2022-08-18T03:12:14.992Z,9.37
2022-08-18T03:14:41.885Z,10.73
2022-08-18T03:17:09.615Z,13.03
2022-08-18T03:19:37.730Z,10.37
2022-08-18T03:22:04.621Z,8.93
2022-08-18T03:24:51.286Z,11.80
2022-08-18T03:27:18.071Z,11.20
2022-08-18T03:29:45.040Z,8.33
2022-08-18T03:32:11.855Z,10.07
2022-08-18T03:34:39.882Z,9.30
2022-08-18T03:37:06.616Z,15.60
2022-08-18T03:39:33.457Z,9.00
2022-08-18T03:42:02.091Z,9.43
2022-08-18T03:44:31.746Z,12.23
2022-08-18T03:46:59.167Z,7.90
2022-08-18T03:49:27.336Z,11.57
2022-08-18T03:51:55.696Z,17.20
2022-08-18T03:54:22.407Z,9.83
2022-08-18T03:56:49.420Z,12.70
2022-08-18T03:59:19.537Z,11.97
2022-08-18T04:01:48.194Z,14.83
2022-08-18T04:04:17.013Z,12.20
2022-08-18T04:06:46.696Z,11.53
2022-08-18T04:09:15.836Z,16.23
2022-08-18T04:11:44.296Z,16.37
2022-08-18T04:14:11.936Z,11.70
2022-08-18T04:16:38.973Z,15.30
2022-08-18T04:19:06.644Z,14.90
2022-08-18T04:21:35.709Z,11.83
2022-08-18T04:24:03.837Z,13.83
2022-08-18T04:26:34.265Z,15.13
2022-08-18T04:29:01.129Z,17.10
2022-08-18T04:31:28.782Z,17.90
2022-08-18T04:33:55.706Z,17.77
2022-08-18T04:36:22.899Z,26.40
2022-08-18T04:38:49.625Z,19.83
2022-08-18T04:41:16.656Z,16.37
2022-08-18T04:43:44.689Z,17.37
2022-08-18T04:46:11.595Z,18.03
2022-08-18T04:48:40.814Z,22.13
2022-08-18T04:51:10.431Z,20.90
2022-08-18T04:53:37.859Z,18.73
2022-08-18T04:56:15.430Z,19.23
2022-08-18T04:58:48.130Z,18.40
2022-08-18T05:01:17.190Z,20.57
2022-08-18T05:03:50.010Z,28.80
2022-08-18T05:06:18.364Z,23.83
2022-08-18T05:08:45.146Z,25.03
2022-08-18T05:11:11.881Z,23.30
2022-08-18T05:13:39.004Z,26.50
2022-08-18T05:16:11.686Z,29.43
2022-08-18T05:18:43.872Z,28.20
2022-08-18T05:21:11.944Z,29.27
2022-08-18T05:23:38.988Z,31.77
2022-08-18T05:26:05.658Z,32.63
2022-08-18T05:28:35.830Z,33.73
2022-08-18T05:31:13.131Z,30.50
2022-08-18T05:33:41.006Z,30.20
2022-08-18T05:36:20.247Z,30.10
2022-08-18T05:38:56.774Z,31.93
2022-08-18T05:41:27.902Z,33.20
2022-08-18T05:43:55.003Z,35.50
2022-08-18T05:46:37.823Z,28.80
2022-08-18T05:49:04.850Z,30.30
2022-08-18T05:51:39.687Z,25.37
2022-08-18T05:54:08.303Z,32.80
2022-08-18T05:56:37.488Z,34.07
2022-08-18T05:59:04.980Z,30.70
2022-08-18T06:01:38.593Z,29.77
2022-08-18T06:04:09.068Z,28.97
2022-08-18T06:06:37.159Z,26.63
2022-08-18T06:09:11.974Z,27.20
2022-08-18T06:11:39.240Z,24.40
2022-08-18T06:14:06.096Z,27.47
2022-08-18T06:16:47.908Z,24.13
2022-08-18T06:19:28.330Z,26.87
2022-08-18T06:22:02.567Z,24.37
2022-08-18T06:24:34.524Z,25.13
2022-08-18T06:27:07.238Z,24.17
2022-08-18T06:29:47.229Z,23.63
2022-08-18T06:32:24.708Z,32.33
2022-08-18T06:35:03.194Z,22.77
2022-08-18T06:37:34.441Z,25.00
2022-08-18T06:40:01.252Z,27.00
2022-08-18T06:42:28.700Z,21.60
2022-08-18T06:45:00.828Z,24.40
2022-08-18T06:47:39.146Z,25.00
2022-08-18T06:50:11.272Z,21.37
2022-08-18T06:52:40.037Z,20.37
2022-08-18T06:55:09.519Z,20.87
2022-08-18T06:57:38.921Z,19.90
2022-08-18T07:00:10.010Z,21.40
2022-08-18T07:02:47.813Z,18.40
2022-08-18T07:05:21.693Z,22.53
2022-08-18T07:08:10.854Z,22.73
2022-08-18T07:10:41.062Z,19.03
2022-08-18T07:13:15.595Z,19.10
2022-08-18T07:15:43.172Z,21.17
2022-08-18T07:18:12.388Z,19.37
2022-08-18T07:20:44.449Z,18.43
2022-08-18T07:23:24.031Z,20.40
2022-08-18T07:25:58.365Z,19.77
2022-08-18T07:28:29.225Z,22.10
2022-08-18T07:31:17.332Z,19.50
2022-08-18T07:33:50.057Z,20.37
2022-08-18T07:36:18.944Z,16.13
2022-08-18T07:38:49.461Z,18.50
2022-08-18T07:41:19.017Z,20.10
2022-08-18T07:43:58.411Z,18.07
2022-08-18T07:46:34.302Z,20.23
2022-08-18T07:49:05.478Z,18.40
2022-08-18T07:51:42.588Z,17.90
2022-08-18T07:54:45.512Z,21.10
2022-08-18T07:57:19.210Z,19.20
2022-08-18T07:59:52.724Z,16.77
2022-08-18T08:02:39.968Z,20.00
2022-08-18T08:05:16.346Z,17.80
2022-08-18T08:07:49.382Z,20.77
2022-08-18T08:10:30.177Z,15.90
2022-08-18T08:13:13.205Z,19.13
2022-08-18T08:15:48.281Z,16.10
2022-08-18T08:18:25.285Z,17.80
2022-08-18T08:20:57.416Z,21.00
2022-08-18T08:23:32.850Z,17.40
2022-08-18T08:26:20.970Z,20.77
2022-08-18T08:28:58.447Z,24.27
2022-08-18T08:31:36.520Z,21.53
2022-08-18T08:34:12.452Z,19.13
2022-08-18T08:36:43.337Z,24.73
2022-08-18T08:39:23.792Z,24.13
2022-08-18T08:41:53.982Z,22.60
2022-08-18T08:44:58.849Z,20.20
2022-08-18T08:47:30.785Z,21.30
2022-08-18T08:50:01.557Z,24.50
2022-08-18T08:52:34.741Z,25.67
2022-08-18T08:55:06.868Z,22.10
2022-08-18T08:57:38.743Z,22.03
2022-08-18T09:00:08.866Z,23.50
2022-08-18T09:02:54.581Z,22.50
2022-08-18T09:05:25.752Z,22.90
2022-08-18T09:08:22.687Z,21.80
2022-08-18T09:11:22.730Z,25.03
2022-08-18T09:14:24.064Z,16.63
2022-08-18T09:17:08.932Z,17.63
2022-08-18T09:19:49.916Z,15.80
2022-08-18T09:22:30.013Z,12.03
2022-08-18T09:24:58.922Z,18.83
2022-08-18T09:28:00.109Z,12.13
2022-08-18T09:30:43.303Z,13.17
2022-08-18T09:33:23.954Z,13.00
2022-08-18T09:36:13.404Z,15.17
2022-08-18T09:38:50.045Z,13.40
2022-08-18T09:41:23.277Z,13.00
2022-08-18T09:43:57.466Z,14.60
2022-08-18T09:46:52.108Z,13.57
2022-08-18T09:49:47.988Z,15.53
2022-08-18T09:52:55.224Z,14.90
2022-08-18T09:56:00.784Z,12.67
2022-08-18T09:58:50.033Z,15.20
2022-08-18T10:01:31.314Z,16.20
2022-08-18T10:04:29.233Z,15.33
2022-08-18T10:07:15.126Z,14.40
2022-08-18T10:09:50.513Z,13.33
2022-08-18T10:12:40.743Z,11.97
2022-08-18T10:15:35.169Z,14.83
2022-08-18T10:18:20.913Z,12.87
2022-08-18T10:20:59.198Z,15.93
2022-08-18T10:27:09.843Z,18.50
2022-08-18T10:29:54.522Z,11.10
2022-08-18T10:32:54.216Z,11.43
2022-08-18T10:35:55.037Z,12.00
2022-08-18T10:38:49.401Z,12.00
2022-08-18T10:41:24.092Z,10.70
2022-08-18T10:43:57.622Z,11.33
2022-08-18T10:46:30.654Z,12.07
2022-08-18T10:49:05.102Z,11.63
2022-08-18T10:51:59.051Z,13.73
2022-08-18T10:57:35.634Z,10.87
2022-08-18T11:00:10.017Z,11.93
2022-08-18T11:02:52.354Z,11.27
2022-08-18T11:05:31.844Z,12.23
2022-08-18T11:08:03.540Z,12.20
2022-08-18T11:10:57.773Z,12.17
2022-08-18T11:13:41.043Z,10.70
2022-08-18T11:16:15.277Z,10.60
2022-08-18T11:18:45.921Z,11.20
2022-08-18T11:24:27.044Z,10.90
2022-08-18T11:26:56.204Z,11.10
2022-08-18T11:29:28.022Z,11.10
2022-08-18T11:32:02.087Z,11.40
2022-08-18T11:34:37.270Z,11.77
2022-08-18T11:37:08.960Z,11.50
2022-08-18T11:39:47.584Z,10.57
2022-08-18T11:42:21.699Z,13.97
2022-08-18T11:44:54.293Z,12.50
2022-08-18T11:47:27.618Z,13.47
2022-08-18T11:50:05.531Z,15.63
2022-08-18T11:52:47.314Z,10.90
2022-08-18T11:55:27.890Z,13.60
2022-08-18T12:00:57.078Z,11.23
2022-08-18T12:03:30.258Z,11.57
2022-08-18T12:06:00.477Z,11.17
2022-08-18T12:08:58.246Z,12.23
2022-08-18T12:11:28.193Z,12.77
2022-08-18T12:14:31.703Z,15.37
2022-08-18T12:19:39.489Z,12.60
2022-08-18T12:22:17.555Z,11.00
2022-08-18T12:24:46.548Z,12.63
2022-08-18T12:27:21.121Z,13.37
2022-08-18T12:32:50.138Z,11.77
2022-08-18T12:35:21.784Z,13.63
2022-08-18T12:38:12.923Z,12.37
2022-08-18T12:40:37.949Z,10.83
2022-08-18T12:43:05.913Z,13.00
2022-08-18T12:45:33.078Z,11.07
2022-08-18T12:48:00.126Z,12.43
2022-08-18T12:50:30.832Z,10.27
2022-08-18T12:53:00.258Z,9.70
2022-08-18T12:55:28.335Z,9.23
2022-08-18T12:57:56.456Z,9.87
2022-08-18T13:00:27.958Z,9.63
2022-08-18T13:02:56.306Z,9.80
2022-08-18T13:05:27.946Z,9.97
2022-08-18T13:08:00.381Z,10.80
2022-08-18T13:10:45.667Z,10.60
2022-08-18T13:13:15.860Z,9.10
2022-08-18T13:15:44.429Z,9.80
2022-08-18T13:18:28.522Z,10.20
2022-08-18T13:20:56.228Z,10.07
2022-08-18T13:23:25.119Z,11.43
2022-08-18T13:25:59.360Z,10.63
2022-08-18T13:28:33.601Z,10.67
2022-08-18T13:31:04.125Z,11.87
2022-08-18T13:33:56.062Z,11.17
2022-08-18T13:36:22.547Z,10.70
2022-08-18T13:38:49.618Z,10.30
2022-08-18T13:41:16.953Z,11.30
2022-08-18T13:44:57.164Z,11.50
2022-08-18T13:47:23.962Z,14.07
2022-08-18T13:49:52.574Z,12.37
2022-08-18T13:52:34.203Z,11.10
2022-08-18T13:55:01.692Z,14.80
2022-08-18T13:57:35.233Z,12.80
2022-08-18T14:00:05.996Z,11.90
2022-08-18T14:02:39.482Z,11.80
2022-08-18T14:05:09.548Z,13.13
2022-08-18T14:07:37.823Z,11.67
2022-08-18T14:10:10.600Z,13.37
2022-08-18T14:12:41.401Z,11.33
2022-08-18T14:15:12.541Z,12.30
2022-08-18T14:17:41.736Z,11.03
2022-08-18T14:20:15.440Z,11.57
2022-08-18T14:22:50.747Z,12.97
2022-08-18T14:25:22.191Z,11.90
2022-08-18T14:27:57.022Z,11.97
2022-08-18T14:30:25.869Z,12.50
2022-08-18T14:32:52.866Z,11.50
2022-08-18T14:35:34.027Z,9.30
2022-08-18T14:38:06.747Z,11.50
2022-08-18T14:40:38.170Z,14.93
2022-08-18T14:43:09.211Z,9.10
2022-08-18T14:45:37.678Z,9.70
2022-08-18T14:48:07.659Z,10.53
2022-08-18T14:50:39.116Z,13.20
2022-08-18T14:53:06.175Z,10.77
2022-08-18T14:55:32.915Z,12.50
2022-08-18T14:58:00.915Z,15.60
2022-08-18T15:00:28.557Z,11.83
2022-08-18T15:02:57.074Z,13.03
2022-08-18T15:05:26.487Z,11.23
2022-08-18T15:07:53.454Z,11.20
2022-08-18T15:10:23.726Z,10.80
2022-08-18T15:12:55.419Z,16.00
2022-08-18T15:15:22.642Z,10.43
2022-08-18T15:17:52.524Z,10.27
2022-08-18T15:20:28.717Z,12.20
2022-08-18T15:22:59.795Z,9.77
2022-08-18T15:25:27.219Z,10.57
2022-08-18T15:27:54.758Z,11.00
2022-08-18T15:30:22.103Z,11.47
2022-08-18T15:32:50.062Z,11.90
2022-08-18T15:35:18.143Z,10.43
2022-08-18T15:37:51.298Z,9.47
2022-08-18T15:40:30.161Z,10.90
2022-08-18T15:43:01.172Z,13.03
2022-08-18T15:45:35.229Z,9.50
2022-08-18T15:48:02.772Z,10.20
2022-08-18T15:50:30.514Z,10.63
2022-08-18T15:53:02.404Z,10.93
2022-08-18T15:55:35.902Z,12.03
2022-08-18T15:58:04.319Z,11.97
2022-08-18T16:00:39.379Z,9.97
2022-08-18T16:03:08.997Z,15.97
2022-08-18T16:05:38.152Z,15.93
2022-08-18T16:08:09.547Z,12.17
2022-08-18T16:10:39.877Z,11.80
2022-08-18T16:13:07.720Z,11.13
2022-08-18T16:15:37.045Z,10.90
2022-08-18T16:18:05.457Z,11.23
2022-08-18T16:20:32.914Z,11.07
2022-08-18T16:23:00.802Z,15.07
2022-08-18T16:25:28.841Z,10.43
2022-08-18T16:27:57.815Z,11.73
2022-08-18T16:30:26.414Z,11.30
2022-08-18T16:32:53.682Z,15.33
2022-08-18T16:35:21.716Z,14.80
2022-08-18T16:37:49.141Z,11.03
2022-08-18T16:40:18.228Z,10.27
2022-08-18T16:42:46.731Z,11.60
2022-08-18T16:45:14.646Z,9.97
2022-08-18T16:47:41.590Z,10.97
2022-08-18T16:50:11.327Z,11.17
2022-08-18T16:52:38.698Z,10.23
2022-08-18T16:55:07.801Z,10.90
2022-08-18T16:57:53.110Z,12.67
2022-08-18T17:00:23.192Z,10.20
2022-08-18T17:02:49.929Z,11.70
2022-08-18T17:05:16.778Z,12.37
2022-08-18T17:07:44.338Z,10.80
2022-08-18T17:10:11.429Z,13.30
2022-08-18T17:12:38.166Z,11.60
2022-08-18T17:15:05.791Z,13.00
2022-08-18T17:17:33.886Z,10.43
2022-08-18T17:20:00.574Z,11.33
2022-08-18T17:22:27.317Z,10.77
2022-08-18T17:25:00.853Z,12.23
2022-08-18T17:27:37.473Z,11.20
2022-08-18T17:30:07.580Z,10.83
2022-08-18T17:32:42.133Z,12.43
2022-08-18T17:35:12.649Z,10.33
2022-08-18T17:37:43.739Z,11.43
2022-08-18T17:40:16.717Z,11.77
2022-08-18T17:42:44.221Z,11.93
2022-08-18T17:45:13.009Z,11.27
2022-08-18T17:47:56.971Z,11.27
2022-08-18T17:50:30.242Z,11.43
2022-08-18T17:53:04.165Z,13.93
2022-08-18T17:55:36.479Z,12.93
2022-08-18T17:58:08.837Z,21.13
2022-08-18T18:00:35.679Z,12.30
2022-08-18T18:03:03.981Z,11.00
2022-08-18T18:05:36.849Z,11.27
2022-08-18T18:08:04.208Z,13.07
2022-08-18T18:10:40.215Z,12.23
2022-08-18T18:13:14.115Z,13.23
2022-08-18T18:15:43.231Z,16.53
2022-08-18T18:18:31.602Z,14.93
2022-08-18T18:21:01.327Z,11.30
2022-08-18T18:23:31.508Z,14.50
2022-08-18T18:25:58.649Z,12.90
2022-08-18T18:28:28.619Z,12.30
2022-08-18T18:30:56.617Z,13.10
2022-08-18T18:33:25.883Z,12.90
2022-08-18T18:35:55.101Z,12.30
2022-08-18T18:38:28.234Z,12.60
2022-08-18T18:41:00.189Z,13.50
2022-08-18T18:43:34.169Z,10.67
2022-08-18T18:46:13.459Z,12.57
2022-08-18T18:48:52.953Z,11.13
2022-08-18T18:51:33.529Z,11.37
2022-08-18T18:54:07.219Z,11.43
2022-08-18T18:56:37.993Z,12.23
2022-08-18T18:59:16.334Z,10.37
2022-08-18T19:01:50.419Z,10.83
2022-08-18T19:04:24.699Z,12.70
2022-08-18T19:06:57.041Z,11.60
2022-08-18T19:09:31.936Z,10.63
2022-08-18T19:12:08.665Z,10.80
2022-08-18T19:14:39.222Z,10.40
2022-08-18T19:17:12.057Z,11.50
2022-08-18T19:19:46.571Z,10.60
2022-08-18T19:22:23.555Z,12.30
2022-08-18T19:24:56.293Z,10.43
2022-08-18T19:27:34.103Z,10.37
2022-08-18T19:30:05.936Z,11.83
2022-08-18T19:32:38.456Z,8.70
2022-08-18T19:35:11.861Z,8.83
2022-08-18T19:37:53.991Z,12.33
2022-08-18T19:40:26.839Z,10.10
2022-08-18T19:43:00.796Z,10.53
2022-08-18T19:45:33.032Z,10.77
2022-08-18T19:48:18.149Z,9.77
2022-08-18T19:50:51.274Z,11.50
2022-08-18T19:53:45.314Z,10.33
2022-08-18T19:56:32.963Z,11.23
2022-08-18T19:59:18.512Z,11.70
2022-08-18T20:01:58.551Z,18.50
2022-08-18T20:04:47.497Z,14.53
2022-08-18T20:07:35.362Z,11.93
2022-08-18T20:10:26.174Z,12.50
2022-08-18T20:13:09.323Z,16.67
2022-08-18T20:15:57.593Z,11.57
2022-08-18T20:18:31.146Z,13.87
2022-08-18T20:21:22.135Z,13.90
2022-08-18T20:24:00.380Z,13.67
2022-08-18T20:26:42.530Z,14.10
2022-08-18T20:29:11.088Z,14.87
2022-08-18T20:31:50.430Z,14.33
2022-08-18T20:34:19.052Z,16.00
2022-08-18T20:36:47.660Z,15.53
2022-08-18T20:39:39.191Z,17.40
2022-08-18T20:42:27.242Z,14.73
2022-08-18T20:44:58.547Z,18.13
2022-08-18T20:47:48.725Z,13.50
2022-08-18T20:50:33.618Z,14.27
2022-08-18T20:53:09.586Z,13.93
2022-08-18T20:55:55.203Z,14.50
2022-08-18T20:58:26.849Z,15.50
2022-08-18T21:00:56.332Z,13.23
2022-08-18T21:03:33.410Z,14.97
2022-08-18T21:06:00.463Z,14.03
2022-08-18T21:08:30.202Z,15.50
2022-08-18T21:11:01.348Z,16.20
2022-08-18T21:13:31.373Z,14.57
2022-08-18T21:15:58.439Z,17.83
2022-08-18T21:18:27.011Z,21.40
2022-08-18T21:20:56.575Z,16.00
2022-08-18T21:23:26.026Z,17.23
2022-08-18T21:25:55.718Z,16.53
2022-08-18T21:28:27.653Z,19.20
2022-08-18T21:30:56.005Z,18.13
2022-08-18T21:33:49.227Z,16.80
2022-08-18T21:36:18.753Z,18.47
2022-08-18T21:39:05.571Z,18.43
2022-08-18T21:41:39.252Z,17.70
2022-08-18T21:44:13.456Z,16.73
2022-08-18T21:46:40.391Z,17.37
2022-08-18T21:49:07.296Z,16.67
2022-08-18T21:51:45.224Z,16.93
2022-08-18T21:54:16.597Z,18.20
2022-08-18T21:56:43.616Z,16.50
2022-08-18T21:59:14.244Z,17.50
2022-08-18T22:01:48.779Z,18.27
2022-08-18T22:04:23.135Z,17.07
2022-08-18T22:06:53.642Z,16.23
2022-08-18T22:09:23.115Z,19.63
2022-08-18T22:12:06.580Z,16.97
2022-08-18T22:14:54.498Z,15.50
2022-08-18T22:17:30.210Z,16.87
2022-08-18T22:20:30.554Z,16.00
2022-08-18T22:23:02.535Z,16.53
2022-08-18T22:25:29.317Z,15.97
2022-08-18T22:27:58.177Z,15.87
2022-08-18T22:30:26.774Z,16.40
2022-08-18T22:32:53.646Z,14.50
2022-08-18T22:35:20.530Z,15.60
2022-08-18T22:37:50.698Z,15.77
2022-08-18T22:40:21.586Z,17.90
2022-08-18T22:42:48.781Z,18.03
2022-08-18T22:45:15.562Z,17.27
2022-08-18T22:47:44.630Z,17.17
2022-08-18T22:50:12.774Z,14.57
2022-08-18T22:52:43.378Z,16.60
2022-08-18T22:55:12.559Z,16.47
2022-08-18T22:57:40.235Z,20.13
2022-08-18T23:00:12.579Z,17.47
2022-08-18T23:02:39.871Z,17.90
2022-08-18T23:05:09.186Z,19.90
2022-08-18T23:07:36.262Z,18.37
2022-08-18T23:10:12.526Z,19.40
2022-08-18T23:12:41.500Z,17.87
2022-08-18T23:15:08.832Z,19.20
2022-08-18T23:17:35.630Z,18.67
2022-08-18T23:20:02.374Z,18.57
2022-08-18T23:22:30.506Z,21.33
2022-08-18T23:24:57.232Z,20.17
2022-08-18T23:27:23.917Z,19.17
2022-08-18T23:29:50.968Z,20.40
2022-08-18T23:32:17.848Z,19.73
2022-08-18T23:34:44.609Z,19.57
2022-08-18T23:37:11.289Z,21.33
2022-08-18T23:39:39.380Z,20.07
2022-08-18T23:42:08.528Z,20.30
2022-08-18T23:44:35.228Z,21.10
2022-08-18T23:47:01.902Z,19.07
2022-08-18T23:49:30.538Z,19.73
2022-08-18T23:51:59.230Z,21.43
2022-08-18T23:54:28.249Z,19.10
2022-08-18T23:56:56.668Z,20.90
2022-08-18T23:59:24.709Z,18.50
